sensor_id;sensor_type;location;lat;lon;timestamp;temperature;humidity
22224;DHT22;11281;52.194;21.006;2022-10-16T00:00:29;12.20;99.90
22224;DHT22;11281;52.194;21.006;2022-10-16T00:04:50;12.20;99.90
22224;DHT22;11281;52.194;21.006;2022-10-16T00:09:12;12.20;99.90
22224;DHT22;11281;52.194;21.006;2022-10-16T00:13:36;12.30;99.90
22224;DHT22;11281;52.194;21.006;2022-10-16T00:17:59;12.30;99.90
22224;DHT22;11281;52.194;21.006;2022-10-16T00:22:21;12.30;99.90
22224;DHT22;11281;52.194;21.006;2022-10-16T00:26:42;12.30;99.90
22224;DHT22;11281;52.194;21.006;2022-10-16T00:31:06;12.30;99.90
22224;DHT22;11281;52.194;21.006;2022-10-16T00:35:30;12.40;99.90
22224;DHT22;11281;52.194;21.006;2022-10-16T00:39:52;12.40;99.90
22224;DHT22;11281;52.194;21.006;2022-10-16T00:44:46;12.40;99.90
22224;DHT22;11281;52.194;21.006;2022-10-16T00:49:14;12.30;99.90
22224;DHT22;11281;52.194;21.006;2022-10-16T00:53:37;12.30;99.90
22224;DHT22;11281;52.194;21.006;2022-10-16T00:57:59;12.30;99.90
22224;DHT22;11281;52.194;21.006;2022-10-16T01:02:21;12.30;99.90
22224;DHT22;11281;52.194;21.006;2022-10-16T01:06:50;12.30;99.90
22224;DHT22;11281;52.194;21.006;2022-10-16T01:21:29;12.20;99.90
22224;DHT22;11281;52.194;21.006;2022-10-16T01:25:36;12.20;99.90
22224;DHT22;11281;52.194;21.006;2022-10-16T01:30:13;12.20;99.90
22224;DHT22;11281;52.194;21.006;2022-10-16T01:34:50;12.30;99.90
22224;DHT22;11281;52.194;21.006;2022-10-16T01:39:29;12.30;99.90
22224;DHT22;11281;52.194;21.006;2022-10-16T01:44:06;12.30;99.90
22224;DHT22;11281;52.194;21.006;2022-10-16T01:48:34;12.40;99.90
22224;DHT22;11281;52.194;21.006;2022-10-16T01:52:57;12.40;99.90
22224;DHT22;11281;52.194;21.006;2022-10-16T01:57:21;12.40;99.90
22224;DHT22;11281;52.194;21.006;2022-10-16T02:01:49;12.30;99.90
22224;DHT22;11281;52.194;21.006;2022-10-16T02:06:17;12.50;99.90
22224;DHT22;11281;52.194;21.006;2022-10-16T02:10:39;12.50;99.90
22224;DHT22;11281;52.194;21.006;2022-10-16T02:15:01;12.40;99.90
22224;DHT22;11281;52.194;21.006;2022-10-16T02:19:23;12.40;99.90
22224;DHT22;11281;52.194;21.006;2022-10-16T02:28:31;12.30;99.90
22224;DHT22;11281;52.194;21.006;2022-10-16T02:33:00;12.20;99.90
22224;DHT22;11281;52.194;21.006;2022-10-16T02:37:24;12.40;99.90
22224;DHT22;11281;52.194;21.006;2022-10-16T02:41:47;12.30;99.90
22224;DHT22;11281;52.194;21.006;2022-10-16T02:46:09;12.30;99.90
22224;DHT22;11281;52.194;21.006;2022-10-16T02:50:31;12.30;99.90
22224;DHT22;11281;52.194;21.006;2022-10-16T02:54:52;12.30;99.90
22224;DHT22;11281;52.194;21.006;2022-10-16T02:59:14;12.30;99.90
22224;DHT22;11281;52.194;21.006;2022-10-16T03:03:36;12.30;99.90
22224;DHT22;11281;52.194;21.006;2022-10-16T03:07:58;12.40;99.90
22224;DHT22;11281;52.194;21.006;2022-10-16T03:12:22;12.40;99.90
22224;DHT22;11281;52.194;21.006;2022-10-16T03:16:44;12.30;99.90
22224;DHT22;11281;52.194;21.006;2022-10-16T03:21:05;12.30;99.90
22224;DHT22;11281;52.194;21.006;2022-10-16T03:25:27;12.40;99.90
22224;DHT22;11281;52.194;21.006;2022-10-16T03:29:49;12.30;99.90
22224;DHT22;11281;52.194;21.006;2022-10-16T03:34:10;12.30;99.90
22224;DHT22;11281;52.194;21.006;2022-10-16T03:38:32;12.20;99.90
22224;DHT22;11281;52.194;21.006;2022-10-16T03:42:54;12.20;99.90
22224;DHT22;11281;52.194;21.006;2022-10-16T03:47:18;12.30;99.90
22224;DHT22;11281;52.194;21.006;2022-10-16T03:51:42;12.30;99.90
22224;DHT22;11281;52.194;21.006;2022-10-16T03:56:04;12.20;99.90
22224;DHT22;11281;52.194;21.006;2022-10-16T04:00:27;12.30;99.90
22224;DHT22;11281;52.194;21.006;2022-10-16T04:04:48;12.30;99.90
22224;DHT22;11281;52.194;21.006;2022-10-16T04:09:10;12.40;99.90
22224;DHT22;11281;52.194;21.006;2022-10-16T04:13:32;12.30;99.90
22224;DHT22;11281;52.194;21.006;2022-10-16T04:17:53;12.10;99.90
22224;DHT22;11281;52.194;21.006;2022-10-16T04:22:15;11.80;99.90
22224;DHT22;11281;52.194;21.006;2022-10-16T04:26:37;11.50;99.90
22224;DHT22;11281;52.194;21.006;2022-10-16T04:30:59;11.10;99.90
22224;DHT22;11281;52.194;21.006;2022-10-16T04:35:21;10.90;99.90
22224;DHT22;11281;52.194;21.006;2022-10-16T04:39:43;10.80;99.90
22224;DHT22;11281;52.194;21.006;2022-10-16T04:44:06;10.70;99.90
22224;DHT22;11281;52.194;21.006;2022-10-16T04:48:27;10.60;99.90
22224;DHT22;11281;52.194;21.006;2022-10-16T04:52:49;10.50;99.90
22224;DHT22;11281;52.194;21.006;2022-10-16T04:57:11;10.40;99.90
22224;DHT22;11281;52.194;21.006;2022-10-16T05:01:33;10.40;99.90
22224;DHT22;11281;52.194;21.006;2022-10-16T05:05:54;10.20;99.90
22224;DHT22;11281;52.194;21.006;2022-10-16T05:10:17;10.10;99.90
22224;DHT22;11281;52.194;21.006;2022-10-16T05:14:39;10.10;99.90
22224;DHT22;11281;52.194;21.006;2022-10-16T05:19:01;10.20;99.90
22224;DHT22;11281;52.194;21.006;2022-10-16T05:23:23;10.20;99.90
22224;DHT22;11281;52.194;21.006;2022-10-16T05:27:47;10.20;99.90
22224;DHT22;11281;52.194;21.006;2022-10-16T05:32:10;10.10;99.90
22224;DHT22;11281;52.194;21.006;2022-10-16T05:36:31;10.10;99.90
22224;DHT22;11281;52.194;21.006;2022-10-16T05:40:53;10.10;99.90
22224;DHT22;11281;52.194;21.006;2022-10-16T05:45:15;10.20;99.90
22224;DHT22;11281;52.194;21.006;2022-10-16T05:49:37;10.20;99.90
22224;DHT22;11281;52.194;21.006;2022-10-16T05:53:58;10.30;99.90
22224;DHT22;11281;52.194;21.006;2022-10-16T05:58:21;10.30;99.90
22224;DHT22;11281;52.194;21.006;2022-10-16T06:02:43;10.30;99.90
22224;DHT22;11281;52.194;21.006;2022-10-16T06:07:05;10.30;99.90
22224;DHT22;11281;52.194;21.006;2022-10-16T06:11:29;10.30;99.90
22224;DHT22;11281;52.194;21.006;2022-10-16T06:15:51;10.30;99.90
22224;DHT22;11281;52.194;21.006;2022-10-16T06:20:13;10.50;99.90
22224;DHT22;11281;52.194;21.006;2022-10-16T06:24:35;10.70;99.90
22224;DHT22;11281;52.194;21.006;2022-10-16T06:28:58;10.90;99.90
22224;DHT22;11281;52.194;21.006;2022-10-16T06:33:20;11.10;99.90
22224;DHT22;11281;52.194;21.006;2022-10-16T06:37:42;11.20;99.90
22224;DHT22;11281;52.194;21.006;2022-10-16T06:42:04;11.50;99.90
22224;DHT22;11281;52.194;21.006;2022-10-16T06:46:26;11.70;99.90
22224;DHT22;11281;52.194;21.006;2022-10-16T06:55:21;12.50;99.90
22224;DHT22;11281;52.194;21.006;2022-10-16T06:59:42;12.90;99.90
22224;DHT22;11281;52.194;21.006;2022-10-16T07:04:04;13.10;99.90
22224;DHT22;11281;52.194;21.006;2022-10-16T07:08:26;13.20;99.90
22224;DHT22;11281;52.194;21.006;2022-10-16T07:12:48;13.40;99.90
22224;DHT22;11281;52.194;21.006;2022-10-16T07:17:09;13.60;99.90
22224;DHT22;11281;52.194;21.006;2022-10-16T07:21:33;13.90;99.90
22224;DHT22;11281;52.194;21.006;2022-10-16T07:25:56;14.20;99.90
22224;DHT22;11281;52.194;21.006;2022-10-16T07:30:18;14.60;99.90
22224;DHT22;11281;52.194;21.006;2022-10-16T07:34:40;14.80;99.90
22224;DHT22;11281;52.194;21.006;2022-10-16T07:39:02;14.70;99.90
22224;DHT22;11281;52.194;21.006;2022-10-16T07:43:24;14.50;99.90
22224;DHT22;11281;52.194;21.006;2022-10-16T07:47:46;14.50;99.90
22224;DHT22;11281;52.194;21.006;2022-10-16T07:52:08;14.80;99.90
22224;DHT22;11281;52.194;21.006;2022-10-16T07:56:31;15.20;99.90
22224;DHT22;11281;52.194;21.006;2022-10-16T08:00:54;15.50;99.90
22224;DHT22;11281;52.194;21.006;2022-10-16T08:05:16;15.50;99.90
22224;DHT22;11281;52.194;21.006;2022-10-16T08:09:38;15.40;99.90
22224;DHT22;11281;52.194;21.006;2022-10-16T08:14:00;15.10;99.90
22224;DHT22;11281;52.194;21.006;2022-10-16T08:18:22;15.10;99.90
22224;DHT22;11281;52.194;21.006;2022-10-16T08:22:44;15.30;99.90
22224;DHT22;11281;52.194;21.006;2022-10-16T08:27:06;15.50;99.90
22224;DHT22;11281;52.194;21.006;2022-10-16T08:31:28;15.60;99.90
22224;DHT22;11281;52.194;21.006;2022-10-16T08:35:53;15.80;99.90
22224;DHT22;11281;52.194;21.006;2022-10-16T08:40:22;16.10;99.90
22224;DHT22;11281;52.194;21.006;2022-10-16T08:45:01;16.40;99.90
22224;DHT22;11281;52.194;21.006;2022-10-16T08:49:33;16.60;99.90
22224;DHT22;11281;52.194;21.006;2022-10-16T08:53:59;16.70;99.90
22224;DHT22;11281;52.194;21.006;2022-10-16T08:58:29;16.70;99.90
22224;DHT22;11281;52.194;21.006;2022-10-16T09:12:37;16.70;99.90
22224;DHT22;11281;52.194;21.006;2022-10-16T09:17:16;16.70;99.90
22224;DHT22;11281;52.194;21.006;2022-10-16T09:22:10;16.60;99.90
22224;DHT22;11281;52.194;21.006;2022-10-16T09:26:35;16.70;99.90
22224;DHT22;11281;52.194;21.006;2022-10-16T09:30:57;16.80;99.90
22224;DHT22;11281;52.194;21.006;2022-10-16T09:35:37;16.90;99.90
22224;DHT22;11281;52.194;21.006;2022-10-16T09:40:01;17.10;99.90
22224;DHT22;11281;52.194;21.006;2022-10-16T09:44:29;17.30;99.90
22224;DHT22;11281;52.194;21.006;2022-10-16T09:48:55;17.30;99.90
22224;DHT22;11281;52.194;21.006;2022-10-16T09:53:18;17.30;99.90
22224;DHT22;11281;52.194;21.006;2022-10-16T09:57:50;17.40;99.90
22224;DHT22;11281;52.194;21.006;2022-10-16T10:02:15;17.70;99.90
22224;DHT22;11281;52.194;21.006;2022-10-16T10:06:57;17.80;99.90
22224;DHT22;11281;52.194;21.006;2022-10-16T10:11:39;17.70;99.90
22224;DHT22;11281;52.194;21.006;2022-10-16T10:16:02;17.70;99.90
22224;DHT22;11281;52.194;21.006;2022-10-16T10:20:29;17.90;99.90
22224;DHT22;11281;52.194;21.006;2022-10-16T10:34:38;17.60;99.90
22224;DHT22;11281;52.194;21.006;2022-10-16T10:44:08;17.70;99.90
22224;DHT22;11281;52.194;21.006;2022-10-16T10:53:56;17.50;99.90
22224;DHT22;11281;52.194;21.006;2022-10-16T10:58:27;17.50;99.90
22224;DHT22;11281;52.194;21.006;2022-10-16T11:18:03;18.60;99.90
22224;DHT22;11281;52.194;21.006;2022-10-16T11:22:37;18.80;99.90
22224;DHT22;11281;52.194;21.006;2022-10-16T11:27:04;18.80;99.90
22224;DHT22;11281;52.194;21.006;2022-10-16T11:31:41;19.20;99.90
22224;DHT22;11281;52.194;21.006;2022-10-16T11:36:15;19.00;99.90
22224;DHT22;11281;52.194;21.006;2022-10-16T11:40:43;19.00;99.90
22224;DHT22;11281;52.194;21.006;2022-10-16T11:46:04;18.70;99.90
22224;DHT22;11281;52.194;21.006;2022-10-16T11:50:27;18.90;99.90
22224;DHT22;11281;52.194;21.006;2022-10-16T11:55:01;18.80;99.90
22224;DHT22;11281;52.194;21.006;2022-10-16T12:05:03;18.70;99.90
22224;DHT22;11281;52.194;21.006;2022-10-16T12:09:39;18.50;99.90
22224;DHT22;11281;52.194;21.006;2022-10-16T12:14:43;18.30;99.90
22224;DHT22;11281;52.194;21.006;2022-10-16T12:19:15;18.30;99.90
22224;DHT22;11281;52.194;21.006;2022-10-16T12:23:46;18.40;99.90
22224;DHT22;11281;52.194;21.006;2022-10-16T12:32:38;18.20;99.90
22224;DHT22;11281;52.194;21.006;2022-10-16T12:42:24;18.20;99.90
22224;DHT22;11281;52.194;21.006;2022-10-16T12:46:54;18.20;99.90
22224;DHT22;11281;52.194;21.006;2022-10-16T12:51:40;18.40;99.90
22224;DHT22;11281;52.194;21.006;2022-10-16T12:56:54;18.50;99.90
22224;DHT22;11281;52.194;21.006;2022-10-16T13:01:34;18.30;99.90
22224;DHT22;11281;52.194;21.006;2022-10-16T13:06:27;18.30;99.90
22224;DHT22;11281;52.194;21.006;2022-10-16T13:21:07;18.20;99.90
22224;DHT22;11281;52.194;21.006;2022-10-16T13:30:40;18.20;99.90
22224;DHT22;11281;52.194;21.006;2022-10-16T13:35:03;18.10;99.90
22224;DHT22;11281;52.194;21.006;2022-10-16T13:39:40;18.00;99.90
22224;DHT22;11281;52.194;21.006;2022-10-16T13:44:02;17.80;99.90
22224;DHT22;11281;52.194;21.006;2022-10-16T13:48:24;17.70;99.90
22224;DHT22;11281;52.194;21.006;2022-10-16T13:52:46;17.90;99.90
22224;DHT22;11281;52.194;21.006;2022-10-16T13:57:07;17.90;99.90
22224;DHT22;11281;52.194;21.006;2022-10-16T14:06:06;17.80;99.90
22224;DHT22;11281;52.194;21.006;2022-10-16T14:10:34;17.70;99.90
22224;DHT22;11281;52.194;21.006;2022-10-16T14:14:58;17.60;99.90
22224;DHT22;11281;52.194;21.006;2022-10-16T14:19:28;17.30;99.90
22224;DHT22;11281;52.194;21.006;2022-10-16T14:23:50;17.20;99.90
22224;DHT22;11281;52.194;21.006;2022-10-16T14:32:52;17.00;99.90
22224;DHT22;11281;52.194;21.006;2022-10-16T14:37:26;17.00;99.90
22224;DHT22;11281;52.194;21.006;2022-10-16T14:41:50;16.90;99.90
22224;DHT22;11281;52.194;21.006;2022-10-16T14:46:15;16.80;99.90
22224;DHT22;11281;52.194;21.006;2022-10-16T14:50:38;16.80;99.90
22224;DHT22;11281;52.194;21.006;2022-10-16T14:55:00;16.80;99.90
22224;DHT22;11281;52.194;21.006;2022-10-16T14:59:34;16.70;99.90
22224;DHT22;11281;52.194;21.006;2022-10-16T15:03:57;16.70;99.90
22224;DHT22;11281;52.194;21.006;2022-10-16T15:08:19;16.50;99.90
22224;DHT22;11281;52.194;21.006;2022-10-16T15:12:40;16.30;99.90
22224;DHT22;11281;52.194;21.006;2022-10-16T15:17:03;16.30;99.90
22224;DHT22;11281;52.194;21.006;2022-10-16T15:21:27;16.10;99.90
22224;DHT22;11281;52.194;21.006;2022-10-16T15:25:55;16.20;99.90
22224;DHT22;11281;52.194;21.006;2022-10-16T15:30:17;16.10;99.90
22224;DHT22;11281;52.194;21.006;2022-10-16T15:34:39;15.90;99.90
22224;DHT22;11281;52.194;21.006;2022-10-16T15:39:00;16.00;99.90
22224;DHT22;11281;52.194;21.006;2022-10-16T15:43:22;15.90;99.90
22224;DHT22;11281;52.194;21.006;2022-10-16T15:47:44;15.70;99.90
22224;DHT22;11281;52.194;21.006;2022-10-16T15:52:06;15.60;99.90
22224;DHT22;11281;52.194;21.006;2022-10-16T15:56:28;15.50;99.90
22224;DHT22;11281;52.194;21.006;2022-10-16T16:00:57;15.50;99.90
22224;DHT22;11281;52.194;21.006;2022-10-16T16:05:22;15.40;99.90
22224;DHT22;11281;52.194;21.006;2022-10-16T16:09:44;15.40;99.90
22224;DHT22;11281;52.194;21.006;2022-10-16T16:14:07;15.40;99.90
22224;DHT22;11281;52.194;21.006;2022-10-16T16:18:32;15.40;99.90
22224;DHT22;11281;52.194;21.006;2022-10-16T16:22:54;15.40;99.90
22224;DHT22;11281;52.194;21.006;2022-10-16T16:27:16;15.40;99.90
22224;DHT22;11281;52.194;21.006;2022-10-16T16:31:38;15.30;99.90
22224;DHT22;11281;52.194;21.006;2022-10-16T16:36:03;15.20;99.90
22224;DHT22;11281;52.194;21.006;2022-10-16T16:40:27;15.20;99.90
22224;DHT22;11281;52.194;21.006;2022-10-16T16:44:49;15.20;99.90
22224;DHT22;11281;52.194;21.006;2022-10-16T16:49:12;15.20;99.90
22224;DHT22;11281;52.194;21.006;2022-10-16T16:53:35;15.20;99.90
22224;DHT22;11281;52.194;21.006;2022-10-16T16:57:57;15.10;99.90
22224;DHT22;11281;52.194;21.006;2022-10-16T17:02:19;14.90;99.90
22224;DHT22;11281;52.194;21.006;2022-10-16T17:06:41;14.80;99.90
22224;DHT22;11281;52.194;21.006;2022-10-16T17:11:03;14.70;99.90
22224;DHT22;11281;52.194;21.006;2022-10-16T17:15:26;14.60;99.90
22224;DHT22;11281;52.194;21.006;2022-10-16T17:19:51;14.40;99.90
22224;DHT22;11281;52.194;21.006;2022-10-16T17:24:13;14.20;99.90
22224;DHT22;11281;52.194;21.006;2022-10-16T17:28:35;14.10;99.90
22224;DHT22;11281;52.194;21.006;2022-10-16T17:32:57;14.00;99.90
22224;DHT22;11281;52.194;21.006;2022-10-16T17:37:19;13.80;99.90
22224;DHT22;11281;52.194;21.006;2022-10-16T17:41:40;13.70;99.90
22224;DHT22;11281;52.194;21.006;2022-10-16T17:46:02;13.70;99.90
22224;DHT22;11281;52.194;21.006;2022-10-16T17:50:24;13.80;99.90
22224;DHT22;11281;52.194;21.006;2022-10-16T17:54:49;13.70;99.90
22224;DHT22;11281;52.194;21.006;2022-10-16T17:59:12;13.60;99.90
22224;DHT22;11281;52.194;21.006;2022-10-16T18:03:33;13.70;99.90
22224;DHT22;11281;52.194;21.006;2022-10-16T18:07:55;13.60;99.90
22224;DHT22;11281;52.194;21.006;2022-10-16T18:12:18;13.70;99.90
22224;DHT22;11281;52.194;21.006;2022-10-16T18:16:40;13.80;99.90
22224;DHT22;11281;52.194;21.006;2022-10-16T18:21:04;13.80;99.90
22224;DHT22;11281;52.194;21.006;2022-10-16T18:25:27;13.80;99.90
22224;DHT22;11281;52.194;21.006;2022-10-16T18:29:49;13.70;99.90
22224;DHT22;11281;52.194;21.006;2022-10-16T18:34:12;13.60;99.90
22224;DHT22;11281;52.194;21.006;2022-10-16T18:38:35;13.50;99.90
22224;DHT22;11281;52.194;21.006;2022-10-16T18:42:57;13.40;99.90
22224;DHT22;11281;52.194;21.006;2022-10-16T18:47:19;13.40;99.90
22224;DHT22;11281;52.194;21.006;2022-10-16T18:51:41;13.20;99.90
22224;DHT22;11281;52.194;21.006;2022-10-16T18:56:04;13.10;99.90
22224;DHT22;11281;52.194;21.006;2022-10-16T19:00:26;13.00;99.90
22224;DHT22;11281;52.194;21.006;2022-10-16T19:04:48;13.10;99.90
22224;DHT22;11281;52.194;21.006;2022-10-16T19:09:11;13.00;99.90
22224;DHT22;11281;52.194;21.006;2022-10-16T19:13:34;12.90;99.90
22224;DHT22;11281;52.194;21.006;2022-10-16T19:17:56;12.90;99.90
22224;DHT22;11281;52.194;21.006;2022-10-16T19:22:17;12.70;99.90
22224;DHT22;11281;52.194;21.006;2022-10-16T19:26:50;12.70;99.90
22224;DHT22;11281;52.194;21.006;2022-10-16T19:31:14;12.60;99.90
22224;DHT22;11281;52.194;21.006;2022-10-16T19:35:37;12.60;99.90
22224;DHT22;11281;52.194;21.006;2022-10-16T19:39:59;12.70;99.90
22224;DHT22;11281;52.194;21.006;2022-10-16T19:44:21;12.60;99.90
22224;DHT22;11281;52.194;21.006;2022-10-16T19:48:43;12.70;99.90
22224;DHT22;11281;52.194;21.006;2022-10-16T19:53:05;12.90;99.90
22224;DHT22;11281;52.194;21.006;2022-10-16T19:57:27;13.00;99.90
22224;DHT22;11281;52.194;21.006;2022-10-16T20:01:48;13.00;99.90
22224;DHT22;11281;52.194;21.006;2022-10-16T20:06:11;13.10;99.90
22224;DHT22;11281;52.194;21.006;2022-10-16T20:10:33;13.10;99.90
22224;DHT22;11281;52.194;21.006;2022-10-16T20:14:55;13.00;99.90
22224;DHT22;11281;52.194;21.006;2022-10-16T20:19:17;13.10;99.90
22224;DHT22;11281;52.194;21.006;2022-10-16T20:23:39;13.10;99.90
22224;DHT22;11281;52.194;21.006;2022-10-16T20:28:01;13.20;99.90
22224;DHT22;11281;52.194;21.006;2022-10-16T20:32:23;13.20;99.90
22224;DHT22;11281;52.194;21.006;2022-10-16T20:36:45;13.10;99.90
22224;DHT22;11281;52.194;21.006;2022-10-16T20:41:07;13.20;99.90
22224;DHT22;11281;52.194;21.006;2022-10-16T20:45:30;13.10;99.90
22224;DHT22;11281;52.194;21.006;2022-10-16T20:49:52;12.90;99.90
22224;DHT22;11281;52.194;21.006;2022-10-16T20:54:15;12.80;99.90
22224;DHT22;11281;52.194;21.006;2022-10-16T20:58:38;13.00;99.90
22224;DHT22;11281;52.194;21.006;2022-10-16T21:03:00;13.00;99.90
22224;DHT22;11281;52.194;21.006;2022-10-16T21:07:22;12.90;99.90
22224;DHT22;11281;52.194;21.006;2022-10-16T21:11:44;12.70;99.90
22224;DHT22;11281;52.194;21.006;2022-10-16T21:16:06;12.40;99.90
22224;DHT22;11281;52.194;21.006;2022-10-16T21:20:28;12.30;99.90
22224;DHT22;11281;52.194;21.006;2022-10-16T21:24:50;12.00;99.90
22224;DHT22;11281;52.194;21.006;2022-10-16T21:29:12;12.00;99.90
22224;DHT22;11281;52.194;21.006;2022-10-16T21:33:34;11.90;99.90
22224;DHT22;11281;52.194;21.006;2022-10-16T21:37:56;11.80;99.90
22224;DHT22;11281;52.194;21.006;2022-10-16T21:42:18;11.70;99.90
22224;DHT22;11281;52.194;21.006;2022-10-16T21:46:42;11.80;99.90
22224;DHT22;11281;52.194;21.006;2022-10-16T21:51:04;11.80;99.90
22224;DHT22;11281;52.194;21.006;2022-10-16T21:55:26;11.80;99.90
22224;DHT22;11281;52.194;21.006;2022-10-16T21:59:49;11.80;99.90
22224;DHT22;11281;52.194;21.006;2022-10-16T22:04:13;11.70;99.90
22224;DHT22;11281;52.194;21.006;2022-10-16T22:08:36;11.70;99.90
22224;DHT22;11281;52.194;21.006;2022-10-16T22:12:58;11.90;99.90
22224;DHT22;11281;52.194;21.006;2022-10-16T22:17:20;12.00;99.90
22224;DHT22;11281;52.194;21.006;2022-10-16T22:21:42;12.10;99.90
22224;DHT22;11281;52.194;21.006;2022-10-16T22:26:09;12.20;99.90
22224;DHT22;11281;52.194;21.006;2022-10-16T22:30:37;12.50;99.90
22224;DHT22;11281;52.194;21.006;2022-10-16T22:34:59;12.70;99.90
22224;DHT22;11281;52.194;21.006;2022-10-16T22:39:21;12.90;99.90
22224;DHT22;11281;52.194;21.006;2022-10-16T22:43:44;13.00;99.90
22224;DHT22;11281;52.194;21.006;2022-10-16T22:48:08;13.20;99.90
22224;DHT22;11281;52.194;21.006;2022-10-16T22:52:33;13.30;99.90
22224;DHT22;11281;52.194;21.006;2022-10-16T22:56:55;13.10;99.90
22224;DHT22;11281;52.194;21.006;2022-10-16T23:01:25;13.10;99.90
22224;DHT22;11281;52.194;21.006;2022-10-16T23:05:48;13.00;99.90
22224;DHT22;11281;52.194;21.006;2022-10-16T23:10:10;12.80;99.90
22224;DHT22;11281;52.194;21.006;2022-10-16T23:14:32;12.60;99.90
22224;DHT22;11281;52.194;21.006;2022-10-16T23:18:54;12.70;99.90
22224;DHT22;11281;52.194;21.006;2022-10-16T23:23:15;12.40;99.90
22224;DHT22;11281;52.194;21.006;2022-10-16T23:27:37;12.20;99.90
22224;DHT22;11281;52.194;21.006;2022-10-16T23:31:59;12.20;99.90
22224;DHT22;11281;52.194;21.006;2022-10-16T23:36:21;12.00;99.90
22224;DHT22;11281;52.194;21.006;2022-10-16T23:40:43;11.90;99.90
22224;DHT22;11281;52.194;21.006;2022-10-16T23:45:05;11.80;99.90
22224;DHT22;11281;52.194;21.006;2022-10-16T23:49:27;11.80;99.90
22224;DHT22;11281;52.194;21.006;2022-10-16T23:53:49;11.80;99.90
22224;DHT22;11281;52.194;21.006;2022-10-16T23:58:11;12.20;99.90
